createdAt,value
2022-09-02T00:02:22.402Z,99067.41
2022-09-02T00:05:08.818Z,99074.38
2022-09-02T00:07:55.501Z,99077.84
2022-09-02T00:10:43.807Z,99103.69
2022-09-02T00:13:30.321Z,99073.66
2022-09-02T00:16:17.423Z,99103.78
2022-09-02T00:19:04.672Z,99097.78
2022-09-02T00:21:52.939Z,99100.41
2022-09-02T00:24:40.149Z,99077.16
2022-09-02T00:27:26.638Z,99069.41
2022-09-02T00:30:13.822Z,99092.69
2022-09-02T00:33:00.156Z,99058.22
2022-09-02T00:35:46.933Z,99052.22
2022-09-02T00:38:35.454Z,99086.63
2022-09-02T00:41:25.165Z,99068.56
2022-09-02T00:44:15.293Z,99062.59
2022-09-02T00:47:03.251Z,99072.97
2022-09-02T00:49:53.787Z,99055.72
2022-09-02T00:53:08.377Z,99056.63
2022-09-02T00:55:54.898Z,99077.28
2022-09-02T00:58:43.336Z,99071.28
2022-09-02T01:01:30.155Z,99078.97
2022-09-02T01:04:17.169Z,99071.28
2022-09-02T01:07:04.485Z,99055.75
2022-09-02T01:09:51.300Z,99057.53
2022-09-02T01:12:38.033Z,99073.91
2022-09-02T01:15:25.893Z,99094.59
2022-09-02T01:18:18.037Z,99067.06
2022-09-02T01:21:04.863Z,99071.38
2022-09-02T01:23:54.236Z,99092.06
2022-09-02T01:26:40.953Z,99061.91
2022-09-02T01:29:28.661Z,99086.03
2022-09-02T01:32:14.915Z,99062.81
2022-09-02T01:35:01.897Z,99042.19
2022-09-02T01:37:55.500Z,99093.84
2022-09-02T01:40:43.047Z,99066.31
2022-09-02T01:43:29.926Z,99061.13
2022-09-02T01:46:16.649Z,99058.59
2022-09-02T01:49:04.529Z,99078.41
2022-09-02T01:51:54.603Z,99080.16
2022-09-02T01:54:44.458Z,99043.97
2022-09-02T01:57:31.225Z,99048.31
2022-09-02T02:00:18.733Z,99085.38
2022-09-02T02:03:05.366Z,99041.44
2022-09-02T02:05:52.553Z,99063.00
2022-09-02T02:08:40.795Z,99042.31
2022-09-02T02:11:27.408Z,99056.97
2022-09-02T02:14:17.993Z,99046.66
2022-09-02T02:17:07.110Z,99050.97
2022-09-02T02:19:53.560Z,99064.75
2022-09-02T02:22:40.112Z,99050.09
2022-09-02T02:25:27.125Z,99079.41
2022-09-02T02:28:14.672Z,99051.84
2022-09-02T02:31:02.164Z,99063.06
2022-09-02T02:33:49.290Z,99077.69
2022-09-02T02:36:37.997Z,99050.97
2022-09-02T02:39:24.303Z,99030.31
2022-09-02T02:42:13.346Z,99073.41
2022-09-02T02:45:01.366Z,99040.66
2022-09-02T02:47:48.174Z,99040.66
2022-09-02T02:50:35.952Z,99030.31
2022-09-02T02:53:22.943Z,99048.44
2022-09-02T02:56:09.873Z,99045.84
2022-09-02T02:59:01.294Z,99068.28
2022-09-02T03:01:48.026Z,99046.69
2022-09-02T03:04:35.574Z,99037.25
2022-09-02T03:07:22.378Z,99038.06
2022-09-02T03:10:10.821Z,99068.31
2022-09-02T03:13:00.370Z,99066.56
2022-09-02T03:15:47.942Z,99064.81
2022-09-02T03:18:35.075Z,99025.16
2022-09-02T03:21:22.577Z,99037.25
2022-09-02T03:24:11.588Z,99070.88
2022-09-02T03:26:58.388Z,99050.19
2022-09-02T03:29:45.010Z,99047.56
2022-09-02T03:32:32.599Z,99064.84
2022-09-02T03:35:21.351Z,99045.00
2022-09-02T03:38:09.147Z,99041.56
2022-09-02T03:40:55.737Z,99031.22
2022-09-02T03:43:44.126Z,99034.66
2022-09-02T03:46:31.208Z,99045.00
2022-09-02T03:49:17.749Z,99048.44
2022-09-02T03:52:04.551Z,99006.22
2022-09-02T03:54:51.328Z,99011.41
2022-09-02T03:57:38.226Z,99035.53
2022-09-02T04:00:29.950Z,99030.34
2022-09-02T04:03:20.161Z,99038.97
2022-09-02T04:06:11.892Z,99047.59
2022-09-02T04:08:59.975Z,99039.81
2022-09-02T04:11:46.566Z,99045.84
2022-09-02T04:14:33.602Z,99047.56
2022-09-02T04:17:20.227Z,99035.53
2022-09-02T04:20:09.410Z,99062.22
2022-09-02T04:22:56.681Z,99042.41
2022-09-02T04:25:44.725Z,99074.31
2022-09-02T04:28:32.356Z,99030.31
2022-09-02T04:31:21.966Z,99062.25
2022-09-02T04:34:10.353Z,99059.66
2022-09-02T04:36:56.929Z,99031.19
2022-09-02T04:39:43.724Z,99042.38
2022-09-02T04:42:31.056Z,99038.94
2022-09-02T04:45:17.373Z,99042.38
2022-09-02T04:48:04.098Z,99068.25
2022-09-02T04:50:50.750Z,99068.25
2022-09-02T04:53:40.933Z,99063.06
2022-09-02T04:56:29.575Z,99072.56
2022-09-02T04:59:17.979Z,99049.28
2022-09-02T05:02:12.653Z,99048.44
2022-09-02T05:05:00.300Z,99033.78
2022-09-02T05:07:49.882Z,99044.13
2022-09-02T05:10:40.194Z,99051.88
2022-09-02T05:13:26.295Z,99035.53
2022-09-02T05:16:16.012Z,99062.25
2022-09-02T05:19:06.161Z,99063.97
2022-09-02T05:21:59.208Z,99024.31
2022-09-02T05:24:51.366Z,99053.63
2022-09-02T05:27:39.144Z,99057.06
2022-09-02T05:30:27.337Z,99019.13
2022-09-02T05:33:15.135Z,99040.66
2022-09-02T05:36:04.674Z,99042.38
2022-09-02T05:38:51.973Z,99050.16
2022-09-02T05:41:38.836Z,99029.44
2022-09-02T05:44:27.135Z,99043.22
2022-09-02T05:47:14.403Z,99066.44
2022-09-02T05:50:03.965Z,99039.72
2022-09-02T05:52:55.523Z,99013.81
2022-09-02T05:55:43.943Z,99048.22
2022-09-02T05:58:32.243Z,99062.84
2022-09-02T06:01:19.724Z,99057.63
2022-09-02T06:04:07.250Z,99051.53
2022-09-02T06:06:54.919Z,99035.91
2022-09-02T06:09:44.540Z,99071.06
2022-09-02T06:12:31.121Z,99051.19
2022-09-02T06:15:18.437Z,99034.59
2022-09-02T06:18:04.857Z,99043.84
2022-09-02T06:20:52.502Z,99016.09
2022-09-02T06:23:39.641Z,99018.47
2022-09-02T06:26:28.115Z,99033.06
2022-09-02T06:29:15.902Z,99037.22
2022-09-02T06:32:03.202Z,99054.25
2022-09-02T06:34:49.875Z,99016.31
2022-09-02T06:37:36.435Z,99031.75
2022-09-02T06:40:23.669Z,99022.28
2022-09-02T06:43:10.390Z,99032.53
2022-09-02T06:46:33.123Z,99060.09
2022-09-02T06:49:23.578Z,99059.97
2022-09-02T06:52:13.667Z,99035.00
2022-09-02T06:55:01.786Z,99064.09
2022-09-02T06:57:48.313Z,99031.84
2022-09-02T07:00:36.941Z,99030.97
2022-09-02T07:03:42.837Z,99044.50
2022-09-02T07:06:36.145Z,99028.03
2022-09-02T07:09:31.074Z,99049.34
2022-09-02T07:12:22.614Z,99036.25
2022-09-02T07:15:16.847Z,99033.19
2022-09-02T07:18:04.560Z,98971.09
2022-09-02T07:20:56.454Z,99043.78
2022-09-02T07:23:43.193Z,99004.72
2022-09-02T07:26:30.310Z,99023.31
2022-09-02T07:29:17.729Z,99036.78
2022-09-02T07:32:06.028Z,99010.66
2022-09-02T07:34:52.346Z,98990.81
2022-09-02T07:37:39.050Z,99033.22
2022-09-02T07:40:28.013Z,99008.97
2022-09-02T07:43:14.810Z,98981.09
2022-09-02T07:46:03.127Z,98996.28
2022-09-02T07:48:50.187Z,98999.00
2022-09-02T07:51:40.788Z,99027.13
2022-09-02T07:54:28.514Z,99015.41
2022-09-02T07:57:16.043Z,98979.53
2022-09-02T08:00:05.080Z,99026.41
2022-09-02T08:03:00.950Z,99034.06
2022-09-02T08:05:53.814Z,99026.41
2022-09-02T08:08:41.385Z,99003.19
2022-09-02T08:11:28.583Z,98977.78
2022-09-02T08:14:24.085Z,99027.38
2022-09-02T08:17:11.657Z,99008.03
2022-09-02T08:19:58.567Z,98996.63
2022-09-02T08:22:48.961Z,99023.44
2022-09-02T08:25:43.179Z,98999.28
2022-09-02T08:28:31.999Z,99031.25
2022-09-02T08:31:18.582Z,99003.53
2022-09-02T08:34:05.201Z,99003.56
2022-09-02T08:36:54.216Z,99004.34
2022-09-02T08:39:43.054Z,98977.47
2022-09-02T08:42:32.265Z,99020.06
2022-09-02T08:45:28.869Z,98997.16
2022-09-02T08:48:20.637Z,98988.31
2022-09-02T08:51:18.257Z,98992.94
2022-09-02T08:54:19.685Z,99009.97
2022-09-02T08:57:06.322Z,98970.81
2022-09-02T08:59:56.073Z,98989.13
2022-09-02T09:03:19.890Z,99005.38
2022-09-02T09:06:14.762Z,98996.88
2022-09-02T09:09:29.046Z,98963.84
2022-09-02T09:12:36.565Z,98987.34
2022-09-02T09:15:41.885Z,98981.66
2022-09-02T09:18:40.555Z,98959.69
2022-09-02T09:21:29.332Z,98937.34
2022-09-02T09:24:30.205Z,98977.47
2022-09-02T09:27:21.967Z,98977.53
2022-09-02T09:30:14.852Z,98972.56
2022-09-02T09:33:02.669Z,98968.53
2022-09-02T09:35:54.547Z,98968.09
2022-09-02T09:38:41.086Z,98939.19
2022-09-02T09:41:29.014Z,98938.78
2022-09-02T09:44:38.381Z,98965.69
2022-09-02T09:47:26.493Z,98935.41
2022-09-02T09:50:17.250Z,98945.84
2022-09-02T09:53:25.078Z,98959.09
2022-09-02T09:56:14.598Z,98957.44
2022-09-02T09:59:01.097Z,98917.75
2022-09-02T10:01:52.024Z,98956.31
2022-09-02T10:04:43.156Z,98926.34
2022-09-02T10:07:45.252Z,98948.47
2022-09-02T10:10:33.642Z,98947.56
2022-09-02T10:13:28.606Z,98908.34
2022-09-02T10:16:18.109Z,98939.19
2022-09-02T10:19:10.142Z,98941.69
2022-09-02T10:22:04.134Z,98926.91
2022-09-02T10:25:09.745Z,98935.56
2022-09-02T10:28:37.083Z,98935.28
2022-09-02T10:31:23.680Z,98925.13
2022-09-02T10:34:34.406Z,98902.56
2022-09-02T10:37:25.858Z,98923.19
2022-09-02T10:40:15.394Z,98922.97
2022-09-02T10:43:07.851Z,98915.59
2022-09-02T10:45:59.523Z,98893.28
2022-09-02T10:48:52.218Z,98909.25
2022-09-02T10:51:57.262Z,98895.91
2022-09-02T10:54:49.525Z,98891.22
2022-09-02T10:57:47.859Z,98864.69
2022-09-02T11:00:40.384Z,98855.41
2022-09-02T11:03:38.354Z,98864.25
2022-09-02T11:06:40.327Z,98874.16
2022-09-02T11:09:40.409Z,98867.19
2022-09-02T11:12:34.448Z,98814.75
2022-09-02T11:15:31.531Z,98872.41
2022-09-02T11:18:35.603Z,98847.78
2022-09-02T11:21:49.508Z,98861.22
2022-09-02T11:24:56.770Z,98838.13
2022-09-02T11:28:15.685Z,98858.53
2022-09-02T11:31:29.784Z,98844.41
2022-09-02T11:34:34.927Z,98838.59
2022-09-02T11:37:39.461Z,98842.09
2022-09-02T11:40:38.789Z,98833.06
2022-09-02T11:43:44.725Z,98814.41
2022-09-02T11:46:37.403Z,98835.88
2022-09-02T11:49:48.366Z,98841.66
2022-09-02T11:52:53.146Z,98841.66
2022-09-02T11:55:43.544Z,98798.72
2022-09-02T11:58:42.403Z,98816.59
2022-09-02T12:01:47.398Z,98799.06
2022-09-02T12:04:59.251Z,98838.97
2022-09-02T12:07:48.812Z,98836.50
2022-09-02T12:10:45.100Z,98844.81
2022-09-02T12:13:41.018Z,98848.25
2022-09-02T12:16:30.666Z,98833.00
2022-09-02T12:19:27.721Z,98832.78
2022-09-02T12:22:17.263Z,98836.94
2022-09-02T12:25:05.765Z,98798.59
2022-09-02T12:28:25.072Z,98821.44
2022-09-02T12:31:38.406Z,98788.69
2022-09-02T12:34:24.713Z,98818.59
2022-09-02T12:37:49.449Z,98818.53
2022-09-02T12:40:55.985Z,98819.06
2022-09-02T12:43:44.539Z,98823.41
2022-09-02T12:46:36.980Z,98810.00
2022-09-02T12:49:40.893Z,98810.09
2022-09-02T12:52:42.378Z,98803.69
2022-09-02T12:55:31.506Z,98801.91
2022-09-02T12:58:22.723Z,98772.03
2022-09-02T13:01:24.790Z,98789.00
2022-09-02T13:04:28.043Z,98735.56
2022-09-02T13:07:46.540Z,98785.44
2022-09-02T13:11:07.291Z,98784.84
2022-09-02T13:14:23.294Z,98752.47
2022-09-02T13:17:35.718Z,98768.59
2022-09-02T13:20:55.769Z,98764.84
2022-09-02T13:24:11.475Z,98742.81
2022-09-02T13:27:28.932Z,98765.69
2022-09-02T13:30:38.127Z,98756.69
2022-09-02T13:33:26.694Z,98743.94
2022-09-02T13:36:26.425Z,98709.34
2022-09-02T13:39:18.081Z,98741.19
2022-09-02T13:42:18.425Z,98716.06
2022-09-02T13:45:18.653Z,98712.31
2022-09-02T13:48:32.729Z,98735.66
2022-09-02T13:51:19.073Z,98702.03
2022-09-02T13:54:22.590Z,98700.78
2022-09-02T13:57:13.914Z,98711.63
2022-09-02T14:00:00.423Z,98676.53
2022-09-02T14:02:57.856Z,98682.69
2022-09-02T14:05:47.718Z,98707.91
2022-09-02T14:08:34.186Z,98713.22
2022-09-02T14:11:21.241Z,98687.91
2022-09-02T14:14:13.428Z,98684.31
2022-09-02T14:17:21.771Z,98688.84
2022-09-02T14:20:09.067Z,98688.09
2022-09-02T14:22:57.349Z,98663.13
2022-09-02T14:25:51.385Z,98677.78
2022-09-02T14:28:37.823Z,98662.78
2022-09-02T14:31:30.493Z,98650.81
2022-09-02T14:34:37.290Z,98644.47
2022-09-02T14:37:31.016Z,98649.75
2022-09-02T14:40:19.594Z,98651.31
2022-09-02T14:43:14.051Z,98654.28
2022-09-02T14:46:07.479Z,98635.78
2022-09-02T14:48:59.316Z,98625.34
2022-09-02T14:51:48.986Z,98636.56
2022-09-02T14:54:35.251Z,98661.63
2022-09-02T14:57:33.500Z,98639.16
2022-09-02T15:00:21.434Z,98626.00
2022-09-02T15:03:07.805Z,98619.31
2022-09-02T15:05:54.412Z,98641.22
2022-09-02T15:08:40.634Z,98635.34
2022-09-02T15:11:27.956Z,98626.25
2022-09-02T15:14:14.180Z,98635.16
2022-09-02T15:17:00.661Z,98627.94
2022-09-02T15:19:47.712Z,98602.03
2022-09-02T15:22:33.758Z,98604.78
2022-09-02T15:25:20.749Z,98622.44
2022-09-02T15:28:07.235Z,98622.66
2022-09-02T15:31:00.679Z,98622.19
2022-09-02T15:33:51.670Z,98586.69
2022-09-02T15:36:38.589Z,98642.13
2022-09-02T15:39:25.967Z,98654.59
2022-09-02T15:42:12.517Z,98632.50
2022-09-02T15:44:58.616Z,98652.31
2022-09-02T15:47:45.082Z,98659.66
2022-09-02T15:50:32.281Z,98624.41
2022-09-02T15:53:20.622Z,98615.50
2022-09-02T15:56:28.826Z,98654.97
2022-09-02T15:59:17.943Z,98662.31
2022-09-02T16:02:04.627Z,98639.25
2022-09-02T16:04:51.494Z,98647.38
2022-09-02T16:07:37.914Z,98638.91
2022-09-02T16:10:24.561Z,98620.28
2022-09-02T16:13:10.802Z,98651.25
2022-09-02T16:16:02.467Z,98647.50
2022-09-02T16:18:53.753Z,98622.13
2022-09-02T16:21:41.139Z,98603.25
2022-09-02T16:24:27.385Z,98612.34
2022-09-02T16:27:13.756Z,98589.09
2022-09-02T16:30:00.065Z,98628.34
2022-09-02T16:32:47.619Z,98598.38
2022-09-02T16:35:34.358Z,98605.09
2022-09-02T16:38:20.799Z,98596.34
2022-09-02T16:41:07.206Z,98628.50
2022-09-02T16:43:56.881Z,98624.34
2022-09-02T16:46:45.251Z,98587.25
2022-09-02T16:49:31.918Z,98601.78
2022-09-02T16:52:18.613Z,98610.72
2022-09-02T16:55:05.441Z,98608.19
2022-09-02T16:57:51.741Z,98615.81
2022-09-02T17:00:41.169Z,98598.75
2022-09-02T17:03:27.727Z,98585.91
2022-09-02T17:06:15.059Z,98609.88
2022-09-02T17:09:01.667Z,98601.38
2022-09-02T17:11:47.920Z,98602.56
2022-09-02T17:14:34.320Z,98576.13
2022-09-02T17:17:20.516Z,98578.09
2022-09-02T17:20:07.346Z,98612.59
2022-09-02T17:22:53.693Z,98600.22
2022-09-02T17:25:39.806Z,98618.72
2022-09-02T17:28:27.056Z,98626.91
2022-09-02T17:31:28.293Z,98604.44
2022-09-02T17:34:15.289Z,98599.50
2022-09-02T17:37:02.558Z,98587.97
2022-09-02T17:39:49.953Z,98567.47
2022-09-02T17:42:36.188Z,98547.72
2022-09-02T17:45:22.990Z,98587.81
2022-09-02T17:48:34.311Z,98593.53
2022-09-02T17:51:16.321Z,98613.06
2022-09-02T17:54:09.557Z,98613.53
2022-09-02T17:57:25.386Z,98607.34
2022-09-02T18:00:14.782Z,98606.25
2022-09-02T18:03:42.585Z,98615.03
2022-09-02T18:06:36.101Z,98600.91
2022-09-02T18:09:23.349Z,98617.78
2022-09-02T18:12:12.374Z,98572.56
2022-09-02T18:14:59.718Z,98610.16
2022-09-02T18:17:49.578Z,98577.44
2022-09-02T18:20:40.673Z,98618.03
2022-09-02T18:24:00.152Z,98608.34
2022-09-02T18:27:11.506Z,98626.88
2022-09-02T18:30:08.609Z,98624.66
2022-09-02T18:33:06.945Z,98632.03
2022-09-02T18:36:02.262Z,98629.03
2022-09-02T18:39:18.978Z,98639.66
2022-09-02T18:42:37.722Z,98598.31
2022-09-02T18:45:31.391Z,98640.47
2022-09-02T18:48:21.048Z,98649.41
2022-09-02T18:51:15.296Z,98626.53
2022-09-02T18:54:09.243Z,98633.03
2022-09-02T18:56:58.594Z,98651.22
2022-09-02T19:00:09.346Z,98652.31
2022-09-02T19:03:05.141Z,98644.97
2022-09-02T19:05:51.446Z,98634.16
2022-09-02T19:08:38.194Z,98629.78
2022-09-02T19:11:25.864Z,98644.78
2022-09-02T19:14:28.995Z,98635.66
2022-09-02T19:17:17.183Z,98661.56
2022-09-02T19:20:07.938Z,98648.81
2022-09-02T19:22:58.553Z,98618.94
2022-09-02T19:25:45.144Z,98643.94
2022-09-02T19:28:31.492Z,98634.00
2022-09-02T19:31:21.809Z,98631.81
2022-09-02T19:34:08.574Z,98633.50
2022-09-02T19:36:55.837Z,98637.97
2022-09-02T19:39:42.657Z,98636.28
2022-09-02T19:42:29.103Z,98634.56
2022-09-02T19:45:16.552Z,98658.56
2022-09-02T19:48:07.954Z,98660.53
2022-09-02T19:50:55.142Z,98643.41
2022-09-02T19:53:42.627Z,98646.25
2022-09-02T19:56:29.811Z,98639.56
2022-09-02T19:59:17.069Z,98621.13
2022-09-02T20:02:04.614Z,98626.97
2022-09-02T20:04:51.219Z,98601.59
2022-09-02T20:07:37.678Z,98615.31
2022-09-02T20:10:28.168Z,98637.84
2022-09-02T20:13:16.473Z,98605.56
2022-09-02T20:16:05.489Z,98635.28
2022-09-02T20:18:53.685Z,98601.59
2022-09-02T20:21:46.164Z,98625.78
2022-09-02T20:24:34.490Z,98598.69
2022-09-02T20:27:26.992Z,98626.09
2022-09-02T20:30:16.410Z,98608.53
2022-09-02T20:33:16.474Z,98618.38
2022-09-02T20:36:23.226Z,98621.66
2022-09-02T20:39:34.278Z,98606.09
2022-09-02T20:42:26.725Z,98629.06
2022-09-02T20:45:22.414Z,98635.38
2022-09-02T20:48:27.977Z,98637.13
2022-09-02T20:51:30.220Z,98628.97
2022-09-02T20:54:39.185Z,98636.47
2022-09-02T20:57:31.662Z,98643.03
2022-09-02T21:00:20.586Z,98627.25
2022-09-02T21:03:12.077Z,98613.44
2022-09-02T21:06:02.094Z,98641.13
2022-09-02T21:09:00.389Z,98645.97
2022-09-02T21:11:54.261Z,98653.25
2022-09-02T21:15:04.241Z,98657.72
2022-09-02T21:17:56.689Z,98651.66
2022-09-02T21:21:03.166Z,98650.19
2022-09-02T21:24:08.317Z,98646.56
2022-09-02T21:27:05.948Z,98614.38
2022-09-02T21:30:20.495Z,98642.69
2022-09-02T21:33:10.424Z,98623.56
2022-09-02T21:35:59.938Z,98616.72
2022-09-02T21:38:46.425Z,98610.94
2022-09-02T21:41:45.942Z,98631.84
2022-09-02T21:44:38.230Z,98632.88
2022-09-02T21:47:40.251Z,98608.50
2022-09-02T21:51:07.531Z,98632.69
2022-09-02T21:54:24.976Z,98640.94
2022-09-02T21:57:29.528Z,98654.91
2022-09-02T22:00:17.281Z,98609.81
2022-09-02T22:03:21.917Z,98654.56
2022-09-02T22:06:30.390Z,98633.31
2022-09-02T22:09:25.406Z,98623.38
2022-09-02T22:12:14.482Z,98618.44
2022-09-02T22:15:11.943Z,98616.41
2022-09-02T22:18:15.249Z,98651.47
2022-09-02T22:21:09.773Z,98649.25
2022-09-02T22:23:57.110Z,98644.03
2022-09-02T22:27:09.290Z,98651.97
2022-09-02T22:30:11.518Z,98655.09
2022-09-02T22:33:08.053Z,98623.97
2022-09-02T22:36:07.569Z,98655.56
2022-09-02T22:38:56.061Z,98619.78
2022-09-02T22:41:53.790Z,98647.22
2022-09-02T22:45:25.240Z,98646.47
2022-09-02T22:48:39.511Z,98649.25
2022-09-02T22:51:55.371Z,98643.53
2022-09-02T22:54:42.821Z,98645.22
2022-09-02T22:57:32.572Z,98647.13
2022-09-02T23:00:22.922Z,98630.09
2022-09-02T23:03:20.663Z,98601.16
2022-09-02T23:06:26.331Z,98641.28
2022-09-02T23:09:14.678Z,98618.34
2022-09-02T23:12:25.055Z,98640.69
2022-09-02T23:15:29.874Z,98633.00
2022-09-02T23:18:36.941Z,98641.72
2022-09-02T23:21:45.210Z,98630.63
2022-09-02T23:25:01.421Z,98639.22
2022-09-02T23:28:01.373Z,98605.94
2022-09-02T23:31:05.984Z,98630.75
2022-09-02T23:34:10.669Z,98634.31
2022-09-02T23:37:26.859Z,98630.78
2022-09-02T23:40:37.658Z,98636.06
2022-09-02T23:43:23.942Z,98631.69
2022-09-02T23:46:38.171Z,98629.09
2022-09-02T23:49:31.392Z,98624.78
2022-09-02T23:52:26.325Z,98630.75
2022-09-02T23:55:24.079Z,98605.00
2022-09-02T23:58:31.217Z,98631.50
